sensor_id;sensor_type;location;lat;lon;timestamp;P1;durP1;ratioP1;P2;durP2;ratioP2
80400;SDS011;69727;53.132;8.230;2023-06-22T00:02:05;24.88;;;16.20;;
80400;SDS011;69727;53.132;8.230;2023-06-22T00:04:31;26.67;;;18.23;;
80400;SDS011;69727;53.132;8.230;2023-06-22T00:06:56;24.17;;;16.63;;
80400;SDS011;69727;53.132;8.230;2023-06-22T00:09:21;29.40;;;18.27;;
80400;SDS011;69727;53.132;8.230;2023-06-22T00:11:47;28.92;;;17.92;;
80400;SDS011;69727;53.132;8.230;2023-06-22T00:14:12;25.90;;;18.20;;
80400;SDS011;69727;53.132;8.230;2023-06-22T00:16:37;27.70;;;17.97;;
80400;SDS011;69727;53.132;8.230;2023-06-22T00:19:03;27.73;;;18.57;;
80400;SDS011;69727;53.132;8.230;2023-06-22T00:21:29;28.88;;;19.25;;
80400;SDS011;69727;53.132;8.230;2023-06-22T00:23:55;29.73;;;19.33;;
80400;SDS011;69727;53.132;8.230;2023-06-22T00:26:20;26.95;;;17.98;;
80400;SDS011;69727;53.132;8.230;2023-06-22T00:28:46;27.75;;;17.95;;
80400;SDS011;69727;53.132;8.230;2023-06-22T00:31:12;27.30;;;17.75;;
80400;SDS011;69727;53.132;8.230;2023-06-22T00:33:38;29.98;;;20.08;;
80400;SDS011;69727;53.132;8.230;2023-06-22T00:36:04;31.02;;;19.75;;
80400;SDS011;69727;53.132;8.230;2023-06-22T00:38:30;31.77;;;21.42;;
80400;SDS011;69727;53.132;8.230;2023-06-22T00:40:55;33.08;;;21.05;;
80400;SDS011;69727;53.132;8.230;2023-06-22T00:43:20;32.33;;;21.50;;
80400;SDS011;69727;53.132;8.230;2023-06-22T00:45:46;30.33;;;20.92;;
80400;SDS011;69727;53.132;8.230;2023-06-22T00:48:12;29.35;;;20.52;;
80400;SDS011;69727;53.132;8.230;2023-06-22T00:50:39;35.03;;;21.75;;
80400;SDS011;69727;53.132;8.230;2023-06-22T00:53:06;28.98;;;19.60;;
80400;SDS011;69727;53.132;8.230;2023-06-22T00:55:34;29.15;;;19.75;;
80400;SDS011;69727;53.132;8.230;2023-06-22T00:58:05;33.53;;;22.08;;
80400;SDS011;69727;53.132;8.230;2023-06-22T01:00:33;32.97;;;20.23;;
80400;SDS011;69727;53.132;8.230;2023-06-22T01:02:58;30.25;;;18.90;;
80400;SDS011;69727;53.132;8.230;2023-06-22T01:05:24;29.85;;;18.85;;
80400;SDS011;69727;53.132;8.230;2023-06-22T01:10:40;29.17;;;18.67;;
80400;SDS011;69727;53.132;8.230;2023-06-22T01:13:18;30.88;;;19.40;;
80400;SDS011;69727;53.132;8.230;2023-06-22T01:15:54;33.22;;;22.15;;
80400;SDS011;69727;53.132;8.230;2023-06-22T01:18:24;28.20;;;18.55;;
80400;SDS011;69727;53.132;8.230;2023-06-22T01:20:53;28.58;;;17.77;;
80400;SDS011;69727;53.132;8.230;2023-06-22T01:31:12;26.80;;;18.00;;
80400;SDS011;69727;53.132;8.230;2023-06-22T01:33:41;27.83;;;17.73;;
80400;SDS011;69727;53.132;8.230;2023-06-22T01:36:08;29.13;;;19.05;;
80400;SDS011;69727;53.132;8.230;2023-06-22T01:38:35;27.98;;;19.60;;
80400;SDS011;69727;53.132;8.230;2023-06-22T01:41:03;31.27;;;19.77;;
80400;SDS011;69727;53.132;8.230;2023-06-22T01:43:29;32.95;;;20.45;;
80400;SDS011;69727;53.132;8.230;2023-06-22T01:45:55;29.45;;;19.90;;
80400;SDS011;69727;53.132;8.230;2023-06-22T01:48:22;27.80;;;18.30;;
80400;SDS011;69727;53.132;8.230;2023-06-22T01:50:49;32.28;;;21.83;;
80400;SDS011;69727;53.132;8.230;2023-06-22T01:53:14;31.20;;;20.83;;
80400;SDS011;69727;53.132;8.230;2023-06-22T01:55:40;31.58;;;21.40;;
80400;SDS011;69727;53.132;8.230;2023-06-22T01:58:05;34.23;;;23.00;;
80400;SDS011;69727;53.132;8.230;2023-06-22T02:00:34;35.25;;;22.80;;
80400;SDS011;69727;53.132;8.230;2023-06-22T02:03:05;36.42;;;22.17;;
80400;SDS011;69727;53.132;8.230;2023-06-22T02:05:43;29.13;;;20.48;;
80400;SDS011;69727;53.132;8.230;2023-06-22T02:08:22;37.10;;;24.50;;
80400;SDS011;69727;53.132;8.230;2023-06-22T02:10:50;35.15;;;23.88;;
80400;SDS011;69727;53.132;8.230;2023-06-22T02:13:17;32.53;;;20.73;;
80400;SDS011;69727;53.132;8.230;2023-06-22T02:15:44;34.10;;;21.52;;
80400;SDS011;69727;53.132;8.230;2023-06-22T02:18:10;37.63;;;23.30;;
80400;SDS011;69727;53.132;8.230;2023-06-22T02:20:37;34.88;;;23.58;;
80400;SDS011;69727;53.132;8.230;2023-06-22T02:23:04;33.72;;;21.25;;
80400;SDS011;69727;53.132;8.230;2023-06-22T02:25:31;33.78;;;22.30;;
80400;SDS011;69727;53.132;8.230;2023-06-22T02:27:57;34.13;;;22.45;;
80400;SDS011;69727;53.132;8.230;2023-06-22T02:30:22;34.80;;;22.23;;
80400;SDS011;69727;53.132;8.230;2023-06-22T02:32:47;33.95;;;22.67;;
80400;SDS011;69727;53.132;8.230;2023-06-22T02:35:13;35.47;;;22.65;;
80400;SDS011;69727;53.132;8.230;2023-06-22T02:37:38;32.58;;;20.77;;
80400;SDS011;69727;53.132;8.230;2023-06-22T02:40:06;34.25;;;22.60;;
80400;SDS011;69727;53.132;8.230;2023-06-22T02:42:35;35.03;;;21.83;;
80400;SDS011;69727;53.132;8.230;2023-06-22T02:45:01;33.95;;;21.20;;
80400;SDS011;69727;53.132;8.230;2023-06-22T02:47:27;35.25;;;20.23;;
80400;SDS011;69727;53.132;8.230;2023-06-22T02:49:52;31.05;;;21.02;;
80400;SDS011;69727;53.132;8.230;2023-06-22T02:52:18;30.35;;;20.27;;
80400;SDS011;69727;53.132;8.230;2023-06-22T02:54:43;31.23;;;20.50;;
80400;SDS011;69727;53.132;8.230;2023-06-22T02:57:11;31.55;;;20.67;;
80400;SDS011;69727;53.132;8.230;2023-06-22T02:59:39;35.22;;;21.75;;
80400;SDS011;69727;53.132;8.230;2023-06-22T03:02:06;36.22;;;23.90;;
80400;SDS011;69727;53.132;8.230;2023-06-22T03:04:31;31.25;;;21.10;;
80400;SDS011;69727;53.132;8.230;2023-06-22T03:06:57;33.22;;;20.65;;
80400;SDS011;69727;53.132;8.230;2023-06-22T03:09:26;33.92;;;21.90;;
80400;SDS011;69727;53.132;8.230;2023-06-22T03:11:52;33.38;;;22.13;;
80400;SDS011;69727;53.132;8.230;2023-06-22T03:14:18;31.63;;;20.58;;
80400;SDS011;69727;53.132;8.230;2023-06-22T03:16:43;35.20;;;21.43;;
80400;SDS011;69727;53.132;8.230;2023-06-22T03:19:09;30.70;;;20.03;;
80400;SDS011;69727;53.132;8.230;2023-06-22T03:21:34;37.60;;;23.42;;
80400;SDS011;69727;53.132;8.230;2023-06-22T03:24:02;31.92;;;21.88;;
80400;SDS011;69727;53.132;8.230;2023-06-22T03:26:27;33.00;;;21.23;;
80400;SDS011;69727;53.132;8.230;2023-06-22T03:28:54;39.38;;;24.38;;
80400;SDS011;69727;53.132;8.230;2023-06-22T03:31:19;38.15;;;24.77;;
80400;SDS011;69727;53.132;8.230;2023-06-22T03:33:46;33.47;;;21.33;;
80400;SDS011;69727;53.132;8.230;2023-06-22T03:36:13;33.92;;;22.42;;
80400;SDS011;69727;53.132;8.230;2023-06-22T03:38:39;32.63;;;21.33;;
80400;SDS011;69727;53.132;8.230;2023-06-22T03:41:04;35.67;;;22.97;;
80400;SDS011;69727;53.132;8.230;2023-06-22T03:43:30;32.83;;;21.43;;
80400;SDS011;69727;53.132;8.230;2023-06-22T03:45:55;36.88;;;23.58;;
80400;SDS011;69727;53.132;8.230;2023-06-22T03:48:20;35.30;;;22.93;;
80400;SDS011;69727;53.132;8.230;2023-06-22T03:50:46;39.10;;;23.93;;
80400;SDS011;69727;53.132;8.230;2023-06-22T03:53:11;40.42;;;26.27;;
80400;SDS011;69727;53.132;8.230;2023-06-22T03:55:40;36.13;;;22.70;;
80400;SDS011;69727;53.132;8.230;2023-06-22T03:58:13;38.42;;;24.98;;
80400;SDS011;69727;53.132;8.230;2023-06-22T04:00:39;39.38;;;25.17;;
80400;SDS011;69727;53.132;8.230;2023-06-22T04:03:04;38.33;;;23.60;;
80400;SDS011;69727;53.132;8.230;2023-06-22T04:05:31;37.28;;;24.08;;
80400;SDS011;69727;53.132;8.230;2023-06-22T04:07:57;39.30;;;24.90;;
80400;SDS011;69727;53.132;8.230;2023-06-22T04:10:22;36.45;;;22.95;;
80400;SDS011;69727;53.132;8.230;2023-06-22T04:12:48;41.97;;;25.92;;
80400;SDS011;69727;53.132;8.230;2023-06-22T04:15:13;35.67;;;23.70;;
80400;SDS011;69727;53.132;8.230;2023-06-22T04:17:39;35.25;;;23.90;;
80400;SDS011;69727;53.132;8.230;2023-06-22T04:20:04;31.67;;;22.07;;
80400;SDS011;69727;53.132;8.230;2023-06-22T04:22:30;33.90;;;22.15;;
80400;SDS011;69727;53.132;8.230;2023-06-22T04:24:55;35.87;;;22.87;;
80400;SDS011;69727;53.132;8.230;2023-06-22T04:27:21;35.33;;;22.63;;
80400;SDS011;69727;53.132;8.230;2023-06-22T04:29:48;35.75;;;21.90;;
80400;SDS011;69727;53.132;8.230;2023-06-22T04:32:22;36.33;;;24.33;;
80400;SDS011;69727;53.132;8.230;2023-06-22T04:34:54;32.97;;;22.65;;
80400;SDS011;69727;53.132;8.230;2023-06-22T04:37:19;35.05;;;23.00;;
80400;SDS011;69727;53.132;8.230;2023-06-22T04:39:48;31.98;;;20.52;;
80400;SDS011;69727;53.132;8.230;2023-06-22T04:42:14;34.05;;;21.98;;
80400;SDS011;69727;53.132;8.230;2023-06-22T04:44:39;33.20;;;21.55;;
80400;SDS011;69727;53.132;8.230;2023-06-22T04:47:08;30.83;;;20.80;;
80400;SDS011;69727;53.132;8.230;2023-06-22T04:49:34;33.78;;;22.55;;
80400;SDS011;69727;53.132;8.230;2023-06-22T04:52:06;38.85;;;22.75;;
80400;SDS011;69727;53.132;8.230;2023-06-22T04:54:36;32.88;;;22.25;;
80400;SDS011;69727;53.132;8.230;2023-06-22T04:57:14;34.80;;;23.75;;
80400;SDS011;69727;53.132;8.230;2023-06-22T04:59:40;38.22;;;24.02;;
80400;SDS011;69727;53.132;8.230;2023-06-22T05:02:06;32.53;;;22.70;;
80400;SDS011;69727;53.132;8.230;2023-06-22T05:04:32;32.70;;;22.88;;
80400;SDS011;69727;53.132;8.230;2023-06-22T05:07:00;31.33;;;21.67;;
80400;SDS011;69727;53.132;8.230;2023-06-22T05:09:26;32.20;;;22.58;;
80400;SDS011;69727;53.132;8.230;2023-06-22T05:11:52;38.92;;;23.00;;
80400;SDS011;69727;53.132;8.230;2023-06-22T05:14:17;34.10;;;22.70;;
80400;SDS011;69727;53.132;8.230;2023-06-22T05:16:44;34.85;;;22.88;;
80400;SDS011;69727;53.132;8.230;2023-06-22T05:19:10;33.58;;;24.05;;
80400;SDS011;69727;53.132;8.230;2023-06-22T05:21:36;33.90;;;22.60;;
80400;SDS011;69727;53.132;8.230;2023-06-22T05:24:01;33.83;;;22.08;;
80400;SDS011;69727;53.132;8.230;2023-06-22T05:26:28;33.70;;;22.25;;
80400;SDS011;69727;53.132;8.230;2023-06-22T05:28:54;36.33;;;24.05;;
80400;SDS011;69727;53.132;8.230;2023-06-22T05:31:20;37.63;;;24.15;;
80400;SDS011;69727;53.132;8.230;2023-06-22T05:33:46;40.08;;;23.63;;
80400;SDS011;69727;53.132;8.230;2023-06-22T05:36:12;32.80;;;23.20;;
80400;SDS011;69727;53.132;8.230;2023-06-22T05:38:38;37.42;;;24.30;;
80400;SDS011;69727;53.132;8.230;2023-06-22T05:41:04;33.88;;;24.08;;
80400;SDS011;69727;53.132;8.230;2023-06-22T05:43:29;33.15;;;22.30;;
80400;SDS011;69727;53.132;8.230;2023-06-22T05:45:55;35.78;;;23.48;;
80400;SDS011;69727;53.132;8.230;2023-06-22T05:48:21;35.78;;;23.25;;
80400;SDS011;69727;53.132;8.230;2023-06-22T05:50:46;33.80;;;22.38;;
80400;SDS011;69727;53.132;8.230;2023-06-22T05:53:12;29.92;;;21.20;;
80400;SDS011;69727;53.132;8.230;2023-06-22T05:55:37;32.95;;;21.92;;
80400;SDS011;69727;53.132;8.230;2023-06-22T05:58:03;34.80;;;22.13;;
80400;SDS011;69727;53.132;8.230;2023-06-22T06:00:28;29.60;;;20.58;;
80400;SDS011;69727;53.132;8.230;2023-06-22T06:02:54;31.63;;;21.25;;
80400;SDS011;69727;53.132;8.230;2023-06-22T06:05:19;27.38;;;19.27;;
80400;SDS011;69727;53.132;8.230;2023-06-22T06:07:45;26.67;;;18.83;;
80400;SDS011;69727;53.132;8.230;2023-06-22T06:10:11;28.35;;;17.85;;
80400;SDS011;69727;53.132;8.230;2023-06-22T06:12:37;24.17;;;17.08;;
80400;SDS011;69727;53.132;8.230;2023-06-22T06:15:03;25.13;;;18.15;;
80400;SDS011;69727;53.132;8.230;2023-06-22T06:17:29;25.83;;;17.00;;
80400;SDS011;69727;53.132;8.230;2023-06-22T06:19:55;24.00;;;15.90;;
80400;SDS011;69727;53.132;8.230;2023-06-22T06:22:20;26.45;;;16.67;;
80400;SDS011;69727;53.132;8.230;2023-06-22T06:24:46;21.58;;;14.52;;
80400;SDS011;69727;53.132;8.230;2023-06-22T06:27:12;22.40;;;14.48;;
80400;SDS011;69727;53.132;8.230;2023-06-22T06:29:38;18.27;;;12.50;;
80400;SDS011;69727;53.132;8.230;2023-06-22T06:32:04;18.88;;;13.48;;
80400;SDS011;69727;53.132;8.230;2023-06-22T06:34:29;18.23;;;12.80;;
80400;SDS011;69727;53.132;8.230;2023-06-22T06:36:54;16.70;;;11.93;;
80400;SDS011;69727;53.132;8.230;2023-06-22T06:39:20;17.33;;;12.03;;
80400;SDS011;69727;53.132;8.230;2023-06-22T06:41:45;15.90;;;11.30;;
80400;SDS011;69727;53.132;8.230;2023-06-22T06:44:11;17.17;;;12.18;;
80400;SDS011;69727;53.132;8.230;2023-06-22T06:46:36;16.65;;;11.77;;
80400;SDS011;69727;53.132;8.230;2023-06-22T06:49:02;14.55;;;10.18;;
80400;SDS011;69727;53.132;8.230;2023-06-22T06:51:28;17.35;;;10.75;;
80400;SDS011;69727;53.132;8.230;2023-06-22T06:53:53;14.37;;;9.20;;
80400;SDS011;69727;53.132;8.230;2023-06-22T06:56:18;19.17;;;10.90;;
80400;SDS011;69727;53.132;8.230;2023-06-22T06:58:44;17.23;;;10.75;;
80400;SDS011;69727;53.132;8.230;2023-06-22T07:01:10;15.60;;;10.77;;
80400;SDS011;69727;53.132;8.230;2023-06-22T07:03:37;16.23;;;9.93;;
80400;SDS011;69727;53.132;8.230;2023-06-22T07:06:02;14.63;;;9.40;;
80400;SDS011;69727;53.132;8.230;2023-06-22T07:08:28;14.38;;;9.57;;
80400;SDS011;69727;53.132;8.230;2023-06-22T07:10:54;10.88;;;7.05;;
80400;SDS011;69727;53.132;8.230;2023-06-22T07:13:19;13.38;;;9.60;;
80400;SDS011;69727;53.132;8.230;2023-06-22T07:15:45;12.32;;;8.05;;
80400;SDS011;69727;53.132;8.230;2023-06-22T07:18:10;10.68;;;7.20;;
80400;SDS011;69727;53.132;8.230;2023-06-22T07:34:24;11.15;;;6.53;;
80400;SDS011;69727;53.132;8.230;2023-06-22T07:36:50;12.63;;;7.40;;
80400;SDS011;69727;53.132;8.230;2023-06-22T07:39:15;10.63;;;7.10;;
80400;SDS011;69727;53.132;8.230;2023-06-22T07:41:40;12.38;;;6.75;;
80400;SDS011;69727;53.132;8.230;2023-06-22T07:44:06;11.27;;;6.15;;
80400;SDS011;69727;53.132;8.230;2023-06-22T07:46:32;8.50;;;5.28;;
80400;SDS011;69727;53.132;8.230;2023-06-22T07:48:58;8.07;;;4.90;;
80400;SDS011;69727;53.132;8.230;2023-06-22T07:51:24;7.75;;;5.13;;
80400;SDS011;69727;53.132;8.230;2023-06-22T07:53:50;8.00;;;4.30;;
80400;SDS011;69727;53.132;8.230;2023-06-22T07:56:15;8.05;;;4.78;;
80400;SDS011;69727;53.132;8.230;2023-06-22T07:58:44;7.38;;;4.60;;
80400;SDS011;69727;53.132;8.230;2023-06-22T08:01:10;7.63;;;4.43;;
80400;SDS011;69727;53.132;8.230;2023-06-22T08:03:36;9.02;;;4.43;;
80400;SDS011;69727;53.132;8.230;2023-06-22T08:06:01;10.23;;;5.22;;
80400;SDS011;69727;53.132;8.230;2023-06-22T08:08:27;6.82;;;4.18;;
80400;SDS011;69727;53.132;8.230;2023-06-22T08:10:52;8.60;;;4.68;;
80400;SDS011;69727;53.132;8.230;2023-06-22T08:13:18;7.50;;;4.80;;
80400;SDS011;69727;53.132;8.230;2023-06-22T08:15:44;8.18;;;4.93;;
80400;SDS011;69727;53.132;8.230;2023-06-22T08:18:09;8.57;;;5.43;;
80400;SDS011;69727;53.132;8.230;2023-06-22T08:20:38;9.30;;;5.20;;
80400;SDS011;69727;53.132;8.230;2023-06-22T08:23:03;9.40;;;5.80;;
80400;SDS011;69727;53.132;8.230;2023-06-22T08:25:34;10.55;;;5.22;;
80400;SDS011;69727;53.132;8.230;2023-06-22T08:28:00;7.55;;;4.95;;
80400;SDS011;69727;53.132;8.230;2023-06-22T08:30:26;10.20;;;6.20;;
80400;SDS011;69727;53.132;8.230;2023-06-22T08:32:52;11.52;;;6.55;;
80400;SDS011;69727;53.132;8.230;2023-06-22T08:35:18;8.70;;;5.65;;
80400;SDS011;69727;53.132;8.230;2023-06-22T08:37:44;11.85;;;5.63;;
80400;SDS011;69727;53.132;8.230;2023-06-22T08:40:15;9.70;;;5.75;;
80400;SDS011;69727;53.132;8.230;2023-06-22T08:42:40;9.97;;;5.70;;
80400;SDS011;69727;53.132;8.230;2023-06-22T08:45:06;16.20;;;6.28;;
80400;SDS011;69727;53.132;8.230;2023-06-22T08:47:32;9.32;;;5.80;;
80400;SDS011;69727;53.132;8.230;2023-06-22T08:49:58;9.45;;;5.10;;
80400;SDS011;69727;53.132;8.230;2023-06-22T08:52:23;11.73;;;5.95;;
80400;SDS011;69727;53.132;8.230;2023-06-22T08:54:49;7.93;;;4.72;;
80400;SDS011;69727;53.132;8.230;2023-06-22T08:57:14;8.88;;;5.60;;
80400;SDS011;69727;53.132;8.230;2023-06-22T08:59:41;9.82;;;5.82;;
80400;SDS011;69727;53.132;8.230;2023-06-22T09:02:07;11.18;;;5.95;;
80400;SDS011;69727;53.132;8.230;2023-06-22T09:04:32;9.63;;;5.75;;
80400;SDS011;69727;53.132;8.230;2023-06-22T09:07:01;7.63;;;5.05;;
80400;SDS011;69727;53.132;8.230;2023-06-22T09:09:26;9.18;;;5.25;;
80400;SDS011;69727;53.132;8.230;2023-06-22T09:11:52;9.02;;;4.72;;
80400;SDS011;69727;53.132;8.230;2023-06-22T09:14:17;8.20;;;5.47;;
80400;SDS011;69727;53.132;8.230;2023-06-22T09:16:43;9.55;;;6.25;;
80400;SDS011;69727;53.132;8.230;2023-06-22T09:19:08;7.57;;;5.15;;
80400;SDS011;69727;53.132;8.230;2023-06-22T09:21:34;7.78;;;5.10;;
80400;SDS011;69727;53.132;8.230;2023-06-22T09:23:59;11.80;;;4.85;;
80400;SDS011;69727;53.132;8.230;2023-06-22T09:26:24;7.40;;;4.63;;
80400;SDS011;69727;53.132;8.230;2023-06-22T09:28:50;10.50;;;4.70;;
80400;SDS011;69727;53.132;8.230;2023-06-22T09:31:16;10.65;;;5.13;;
80400;SDS011;69727;53.132;8.230;2023-06-22T09:33:42;8.15;;;4.95;;
80400;SDS011;69727;53.132;8.230;2023-06-22T09:36:07;7.80;;;4.90;;
80400;SDS011;69727;53.132;8.230;2023-06-22T09:38:36;10.30;;;5.68;;
80400;SDS011;69727;53.132;8.230;2023-06-22T09:41:02;9.90;;;4.88;;
80400;SDS011;69727;53.132;8.230;2023-06-22T09:43:28;7.78;;;4.13;;
80400;SDS011;69727;53.132;8.230;2023-06-22T09:45:54;7.38;;;4.13;;
80400;SDS011;69727;53.132;8.230;2023-06-22T09:48:20;7.22;;;4.43;;
80400;SDS011;69727;53.132;8.230;2023-06-22T09:50:46;6.57;;;4.03;;
80400;SDS011;69727;53.132;8.230;2023-06-22T09:53:12;8.77;;;4.47;;
80400;SDS011;69727;53.132;8.230;2023-06-22T09:55:37;8.02;;;4.28;;
80400;SDS011;69727;53.132;8.230;2023-06-22T09:58:02;7.50;;;3.93;;
80400;SDS011;69727;53.132;8.230;2023-06-22T10:00:28;8.27;;;4.28;;
80400;SDS011;69727;53.132;8.230;2023-06-22T10:02:53;6.75;;;3.85;;
80400;SDS011;69727;53.132;8.230;2023-06-22T10:05:19;6.63;;;3.70;;
80400;SDS011;69727;53.132;8.230;2023-06-22T10:07:44;7.13;;;3.70;;
80400;SDS011;69727;53.132;8.230;2023-06-22T10:10:10;6.43;;;3.55;;
80400;SDS011;69727;53.132;8.230;2023-06-22T10:12:40;6.85;;;4.00;;
80400;SDS011;69727;53.132;8.230;2023-06-22T10:15:07;6.07;;;3.45;;
80400;SDS011;69727;53.132;8.230;2023-06-22T10:17:32;6.50;;;3.85;;
80400;SDS011;69727;53.132;8.230;2023-06-22T10:19:58;6.57;;;3.40;;
80400;SDS011;69727;53.132;8.230;2023-06-22T10:22:23;6.75;;;4.20;;
80400;SDS011;69727;53.132;8.230;2023-06-22T10:24:48;6.82;;;4.57;;
80400;SDS011;69727;53.132;8.230;2023-06-22T10:27:14;6.03;;;3.55;;
80400;SDS011;69727;53.132;8.230;2023-06-22T10:29:39;7.35;;;4.43;;
80400;SDS011;69727;53.132;8.230;2023-06-22T10:32:06;8.98;;;4.80;;
80400;SDS011;69727;53.132;8.230;2023-06-22T10:34:32;6.50;;;4.38;;
80400;SDS011;69727;53.132;8.230;2023-06-22T10:36:57;6.68;;;3.90;;
80400;SDS011;69727;53.132;8.230;2023-06-22T10:39:23;6.40;;;4.03;;
80400;SDS011;69727;53.132;8.230;2023-06-22T10:41:48;7.47;;;3.87;;
80400;SDS011;69727;53.132;8.230;2023-06-22T10:44:13;7.03;;;3.83;;
80400;SDS011;69727;53.132;8.230;2023-06-22T10:46:39;7.68;;;4.22;;
80400;SDS011;69727;53.132;8.230;2023-06-22T10:49:05;7.25;;;4.00;;
80400;SDS011;69727;53.132;8.230;2023-06-22T10:51:30;9.32;;;4.05;;
80400;SDS011;69727;53.132;8.230;2023-06-22T10:53:57;7.15;;;4.60;;
80400;SDS011;69727;53.132;8.230;2023-06-22T10:56:22;7.10;;;4.28;;
80400;SDS011;69727;53.132;8.230;2023-06-22T10:58:47;8.13;;;4.80;;
80400;SDS011;69727;53.132;8.230;2023-06-22T11:01:13;7.45;;;4.85;;
80400;SDS011;69727;53.132;8.230;2023-06-22T11:03:39;9.10;;;4.90;;
80400;SDS011;69727;53.132;8.230;2023-06-22T11:06:04;8.47;;;4.97;;
80400;SDS011;69727;53.132;8.230;2023-06-22T11:08:29;9.60;;;5.07;;
80400;SDS011;69727;53.132;8.230;2023-06-22T11:10:55;7.23;;;4.27;;
80400;SDS011;69727;53.132;8.230;2023-06-22T11:13:20;7.55;;;4.85;;
80400;SDS011;69727;53.132;8.230;2023-06-22T11:15:46;6.40;;;3.88;;
80400;SDS011;69727;53.132;8.230;2023-06-22T11:18:11;6.72;;;4.00;;
80400;SDS011;69727;53.132;8.230;2023-06-22T11:20:36;6.85;;;4.00;;
80400;SDS011;69727;53.132;8.230;2023-06-22T11:23:06;7.93;;;4.90;;
80400;SDS011;69727;53.132;8.230;2023-06-22T11:25:32;7.35;;;4.82;;
80400;SDS011;69727;53.132;8.230;2023-06-22T11:30:26;7.38;;;4.35;;
80400;SDS011;69727;53.132;8.230;2023-06-22T11:32:52;6.60;;;4.28;;
80400;SDS011;69727;53.132;8.230;2023-06-22T11:35:17;7.63;;;4.10;;
80400;SDS011;69727;53.132;8.230;2023-06-22T11:37:43;6.77;;;4.50;;
80400;SDS011;69727;53.132;8.230;2023-06-22T11:40:35;6.57;;;3.90;;
80400;SDS011;69727;53.132;8.230;2023-06-22T11:43:01;6.93;;;4.35;;
80400;SDS011;69727;53.132;8.230;2023-06-22T11:45:26;7.63;;;4.38;;
80400;SDS011;69727;53.132;8.230;2023-06-22T11:47:52;7.85;;;4.57;;
80400;SDS011;69727;53.132;8.230;2023-06-22T11:50:17;9.17;;;4.73;;
80400;SDS011;69727;53.132;8.230;2023-06-22T11:52:42;5.97;;;4.60;;
80400;SDS011;69727;53.132;8.230;2023-06-22T11:55:08;8.55;;;4.28;;
80400;SDS011;69727;53.132;8.230;2023-06-22T11:57:35;10.50;;;4.70;;
80400;SDS011;69727;53.132;8.230;2023-06-22T12:02:31;7.40;;;4.45;;
80400;SDS011;69727;53.132;8.230;2023-06-22T12:04:56;7.20;;;4.22;;
80400;SDS011;69727;53.132;8.230;2023-06-22T12:07:23;9.23;;;5.10;;
80400;SDS011;69727;53.132;8.230;2023-06-22T12:09:48;7.20;;;3.88;;
80400;SDS011;69727;53.132;8.230;2023-06-22T12:12:14;7.28;;;4.55;;
80400;SDS011;69727;53.132;8.230;2023-06-22T12:14:39;8.07;;;4.53;;
80400;SDS011;69727;53.132;8.230;2023-06-22T12:17:05;7.73;;;4.93;;
80400;SDS011;69727;53.132;8.230;2023-06-22T12:19:30;12.30;;;6.13;;
80400;SDS011;69727;53.132;8.230;2023-06-22T12:21:55;9.40;;;6.20;;
80400;SDS011;69727;53.132;8.230;2023-06-22T12:24:21;7.57;;;5.13;;
80400;SDS011;69727;53.132;8.230;2023-06-22T12:26:46;8.27;;;5.47;;
80400;SDS011;69727;53.132;8.230;2023-06-22T12:29:12;7.90;;;5.70;;
80400;SDS011;69727;53.132;8.230;2023-06-22T12:31:37;8.77;;;5.67;;
80400;SDS011;69727;53.132;8.230;2023-06-22T12:34:04;7.88;;;5.60;;
80400;SDS011;69727;53.132;8.230;2023-06-22T12:36:29;7.70;;;5.22;;
80400;SDS011;69727;53.132;8.230;2023-06-22T12:38:55;6.90;;;4.82;;
80400;SDS011;69727;53.132;8.230;2023-06-22T12:41:20;10.77;;;5.47;;
80400;SDS011;69727;53.132;8.230;2023-06-22T12:43:46;9.15;;;6.00;;
80400;SDS011;69727;53.132;8.230;2023-06-22T12:46:11;7.95;;;4.45;;
80400;SDS011;69727;53.132;8.230;2023-06-22T12:48:37;8.20;;;5.45;;
80400;SDS011;69727;53.132;8.230;2023-06-22T12:51:07;8.95;;;5.28;;
80400;SDS011;69727;53.132;8.230;2023-06-22T12:53:33;10.00;;;5.70;;
80400;SDS011;69727;53.132;8.230;2023-06-22T12:55:58;10.63;;;5.13;;
80400;SDS011;69727;53.132;8.230;2023-06-22T12:58:24;7.78;;;5.35;;
80400;SDS011;69727;53.132;8.230;2023-06-22T13:00:49;9.55;;;5.50;;
80400;SDS011;69727;53.132;8.230;2023-06-22T13:03:14;8.13;;;4.63;;
80400;SDS011;69727;53.132;8.230;2023-06-22T13:05:40;9.45;;;6.05;;
80400;SDS011;69727;53.132;8.230;2023-06-22T13:08:05;10.27;;;5.78;;
80400;SDS011;69727;53.132;8.230;2023-06-22T13:10:31;8.23;;;5.70;;
80400;SDS011;69727;53.132;8.230;2023-06-22T13:12:56;10.18;;;5.68;;
80400;SDS011;69727;53.132;8.230;2023-06-22T13:15:26;10.60;;;6.22;;
80400;SDS011;69727;53.132;8.230;2023-06-22T13:17:52;10.32;;;5.95;;
80400;SDS011;69727;53.132;8.230;2023-06-22T13:20:21;10.25;;;5.72;;
80400;SDS011;69727;53.132;8.230;2023-06-22T13:22:46;9.27;;;5.95;;
80400;SDS011;69727;53.132;8.230;2023-06-22T13:25:12;9.40;;;5.90;;
80400;SDS011;69727;53.132;8.230;2023-06-22T13:27:41;9.10;;;5.85;;
80400;SDS011;69727;53.132;8.230;2023-06-22T13:30:07;11.65;;;7.10;;
80400;SDS011;69727;53.132;8.230;2023-06-22T13:32:33;9.93;;;7.18;;
80400;SDS011;69727;53.132;8.230;2023-06-22T13:34:59;8.77;;;6.22;;
80400;SDS011;69727;53.132;8.230;2023-06-22T13:37:25;10.40;;;6.23;;
80400;SDS011;69727;53.132;8.230;2023-06-22T13:39:50;9.48;;;6.40;;
80400;SDS011;69727;53.132;8.230;2023-06-22T13:42:16;13.27;;;8.10;;
80400;SDS011;69727;53.132;8.230;2023-06-22T13:44:41;9.80;;;7.03;;
80400;SDS011;69727;53.132;8.230;2023-06-22T13:47:07;9.82;;;5.70;;
80400;SDS011;69727;53.132;8.230;2023-06-22T13:49:33;9.52;;;5.90;;
80400;SDS011;69727;53.132;8.230;2023-06-22T13:51:58;9.03;;;6.17;;
80400;SDS011;69727;53.132;8.230;2023-06-22T13:54:24;8.02;;;5.70;;
80400;SDS011;69727;53.132;8.230;2023-06-22T13:56:49;8.32;;;6.18;;
80400;SDS011;69727;53.132;8.230;2023-06-22T13:59:15;9.90;;;6.53;;
80400;SDS011;69727;53.132;8.230;2023-06-22T14:01:40;8.77;;;6.07;;
80400;SDS011;69727;53.132;8.230;2023-06-22T14:04:06;8.32;;;5.45;;
80400;SDS011;69727;53.132;8.230;2023-06-22T14:06:32;8.40;;;4.78;;
80400;SDS011;69727;53.132;8.230;2023-06-22T14:08:57;8.00;;;4.57;;
80400;SDS011;69727;53.132;8.230;2023-06-22T14:11:24;7.80;;;4.32;;
80400;SDS011;69727;53.132;8.230;2023-06-22T14:13:50;10.32;;;4.75;;
80400;SDS011;69727;53.132;8.230;2023-06-22T14:16:15;8.68;;;4.55;;
80400;SDS011;69727;53.132;8.230;2023-06-22T14:18:40;8.48;;;5.18;;
80400;SDS011;69727;53.132;8.230;2023-06-22T14:21:06;11.23;;;4.50;;
80400;SDS011;69727;53.132;8.230;2023-06-22T14:23:32;9.48;;;4.90;;
80400;SDS011;69727;53.132;8.230;2023-06-22T14:25:57;10.82;;;4.90;;
80400;SDS011;69727;53.132;8.230;2023-06-22T14:28:23;8.55;;;4.97;;
80400;SDS011;69727;53.132;8.230;2023-06-22T14:30:48;10.00;;;5.40;;
80400;SDS011;69727;53.132;8.230;2023-06-22T14:33:13;10.60;;;5.60;;
80400;SDS011;69727;53.132;8.230;2023-06-22T14:35:39;8.55;;;5.45;;
80400;SDS011;69727;53.132;8.230;2023-06-22T14:38:04;10.90;;;5.95;;
80400;SDS011;69727;53.132;8.230;2023-06-22T14:40:30;11.13;;;6.95;;
80400;SDS011;69727;53.132;8.230;2023-06-22T14:42:55;12.32;;;5.75;;
80400;SDS011;69727;53.132;8.230;2023-06-22T14:45:22;12.68;;;7.13;;
80400;SDS011;69727;53.132;8.230;2023-06-22T14:47:48;12.32;;;7.13;;
80400;SDS011;69727;53.132;8.230;2023-06-22T14:50:13;15.90;;;6.40;;
80400;SDS011;69727;53.132;8.230;2023-06-22T14:52:38;11.40;;;6.15;;
80400;SDS011;69727;53.132;8.230;2023-06-22T14:55:04;9.90;;;6.35;;
80400;SDS011;69727;53.132;8.230;2023-06-22T14:57:30;13.30;;;6.30;;